Time;durP1;ratioP1;P1;durP2;ratioP2;P2;SDS_P1;SDS_P2;PMS_P1;PMS_P2;Temp;Humidity;BMP_temperature;BMP_pressure;BME280_temperature;BME280_humidity;BME280_pressure;Samples;Min_cycle;Max_cycle;Signal;HPM_P1;HPM_P2
2021/12/29 00:00:24;;;;;;;28.70;14.02;;;;;;;6.48;72.78;100496.91;4977597;28;20357;-78
2021/12/29 00:02:50;;;;;;;24.23;13.55;;;;;;;6.49;72.68;100495.94;4978123;28;20104;-78
2021/12/29 00:05:15;;;;;;;26.08;13.93;;;;;;;6.53;72.38;100489.44;4978168;28;20470;-78
2021/12/29 00:07:41;;;;;;;29.08;14.63;;;;;;;6.48;72.29;100483.56;4977309;28;20150;-78
2021/12/29 00:10:08;;;;;;;40.22;13.90;;;;;;;6.52;72.08;100485.03;4983497;28;20026;-78
2021/12/29 00:12:40;;;;;;;28.27;13.43;;;;;;;6.54;72.04;100489.31;4996562;28;20026;-78
2021/12/29 00:15:06;;;;;;;25.17;13.50;;;;;;;6.55;71.90;100480.34;4997218;28;20026;-78
2021/12/29 00:17:32;;;;;;;23.08;12.82;;;;;;;6.56;71.80;100484.75;4996837;28;20441;-78
2021/12/29 00:19:57;;;;;;;24.55;12.80;;;;;;;6.55;71.95;100495.53;4996563;28;20055;-78
2021/12/29 00:22:23;;;;;;;22.73;13.00;;;;;;;6.55;71.55;100485.69;4997082;28;20532;-77
2021/12/29 00:24:48;;;;;;;21.85;12.32;;;;;;;6.51;71.36;100480.69;4996233;28;20436;-77
2021/12/29 00:27:14;;;;;;;20.13;11.73;;;;;;;6.55;71.29;100499.06;4993263;28;20025;-77
2021/12/29 00:29:40;;;;;;;20.15;11.40;;;;;;;6.54;71.63;100500.00;4977240;28;20101;-77
2021/12/29 00:32:05;;;;;;;18.10;10.68;;;;;;;6.63;70.92;100513.72;4959865;28;20081;-78
2021/12/29 00:34:31;;;;;;;25.20;12.18;;;;;;;6.61;70.80;100504.94;4976491;28;20462;-78
2021/12/29 00:36:57;;;;;;;21.25;12.45;;;;;;;6.60;70.48;100495.22;4976570;28;20029;-77
2021/12/29 00:39:22;;;;;;;21.33;12.20;;;;;;;6.55;70.73;100496.38;4985332;28;20349;-77
2021/12/29 00:41:48;;;;;;;17.95;11.95;;;;;;;6.64;70.48;100505.59;4995893;28;20547;-78
2021/12/29 00:44:13;;;;;;;23.02;12.77;;;;;;;6.67;70.42;100499.19;4996103;28;20033;-77
2021/12/29 00:46:39;;;;;;;20.63;12.55;;;;;;;6.68;70.14;100495.56;4995614;28;20022;-79
2021/12/29 00:49:06;;;;;;;24.27;13.27;;;;;;;6.69;70.24;100503.50;4995737;28;20026;-78
2021/12/29 00:51:32;;;;;;;32.17;15.50;;;;;;;6.64;69.63;100504.72;4977992;28;20105;-78
2021/12/29 00:53:57;;;;;;;26.75;14.77;;;;;;;6.65;70.22;100501.09;4995393;28;20061;-78
2021/12/29 00:56:23;;;;;;;27.80;15.13;;;;;;;6.67;69.90;100509.88;4978286;28;20117;-78
2021/12/29 00:58:49;;;;;;;25.08;13.32;;;;;;;6.68;69.86;100512.44;4976430;28;20386;-78
2021/12/29 01:01:14;;;;;;;23.60;13.73;;;;;;;6.68;69.96;100516.94;4976198;28;20023;-77
2021/12/29 01:03:40;;;;;;;24.23;14.10;;;;;;;6.68;69.89;100517.78;4975408;28;20385;-79
2021/12/29 01:06:06;;;;;;;26.80;14.73;;;;;;;6.69;69.60;100505.28;4975292;28;20023;-79
2021/12/29 01:08:32;;;;;;;26.80;14.32;;;;;;;6.67;69.78;100504.53;4975714;28;20085;-79
2021/12/29 01:10:58;;;;;;;32.22;16.10;;;;;;;6.69;70.36;100499.94;4975692;28;20026;-79
2021/12/29 01:13:31;;;;;;;38.72;17.65;;;;;;;6.64;69.71;100500.25;4975808;28;20027;-79
2021/12/29 01:18:27;;;;;;;26.88;15.32;;;;;;;6.60;69.95;100479.19;4975689;28;20082;-77
2021/12/29 01:20:54;;;;;;;30.25;14.98;;;;;;;6.68;70.38;100480.38;4975258;28;20129;-78
2021/12/29 01:23:19;;;;;;;27.38;16.23;;;;;;;6.70;70.14;100469.56;4975474;28;20550;-77
2021/12/29 01:25:45;;;;;;;26.75;15.27;;;;;;;6.71;70.12;100482.00;4975369;28;20023;-78
2021/12/29 01:28:10;;;;;;;23.83;14.27;;;;;;;6.72;69.84;100470.34;4975652;28;20026;-78
2021/12/29 01:30:36;;;;;;;25.67;14.95;;;;;;;6.74;69.98;100466.59;4976221;28;20033;-78
2021/12/29 01:33:06;;;;;;;28.30;14.77;;;;;;;6.81;70.11;100475.06;4995935;28;20101;-78
2021/12/29 01:35:34;;;;;;;29.75;16.58;;;;;;;6.82;69.79;100468.78;5004615;28;20023;-78
2021/12/29 01:38:01;;;;;;;27.33;14.65;;;;;;;6.84;69.70;100464.16;4994750;28;20030;-78
2021/12/29 01:40:27;;;;;;;24.77;14.98;;;;;;;6.91;70.07;100470.81;4975474;28;20034;-78
2021/12/29 01:42:53;;;;;;;26.00;13.85;;;;;;;6.91;70.01;100455.59;4975114;28;20026;-78
2021/12/29 01:45:18;;;;;;;42.33;14.98;;;;;;;6.94;69.47;100465.25;4975656;28;20031;-77
2021/12/29 01:47:44;;;;;;;25.63;14.32;;;;;;;6.96;69.15;100463.31;4989947;28;20050;-77
2021/12/29 01:50:11;;;;;;;30.95;14.15;;;;;;;6.99;69.07;100463.09;4993803;28;20525;-77
2021/12/29 01:52:39;;;;;;;23.15;13.85;;;;;;;7.03;69.36;100480.66;4994078;28;20036;-77
2021/12/29 01:55:09;;;;;;;19.02;11.75;;;;;;;7.04;69.16;100468.97;4991473;28;20026;-77
2021/12/29 01:57:34;;;;;;;32.83;13.75;;;;;;;6.95;68.72;100467.81;4993401;28;20026;-77
2021/12/29 02:00:00;;;;;;;23.30;11.60;;;;;;;6.82;68.13;100458.91;4993347;28;20479;-79
2021/12/29 02:02:26;;;;;;;25.70;13.95;;;;;;;6.79;68.30;100455.63;4981689;28;20042;-79
2021/12/29 02:04:51;;;;;;;31.00;12.50;;;;;;;6.70;67.75;100462.41;4974302;28;20107;-79
2021/12/29 02:07:17;;;;;;;36.42;14.15;;;;;;;6.66;68.11;100455.59;4974279;28;20026;-78
2021/12/29 02:09:43;;;;;;;22.33;13.10;;;;;;;6.67;68.40;100456.41;4973763;28;20449;-79
2021/12/29 02:12:09;;;;;;;20.48;12.73;;;;;;;6.59;68.85;100448.94;4973974;28;20030;-79
2021/12/29 02:14:35;;;;;;;27.90;15.10;;;;;;;6.52;68.81;100451.16;4956269;28;20030;-79
2021/12/29 02:17:01;;;;;;;27.63;12.90;;;;;;;6.61;68.97;100451.50;4973424;28;20023;-77
2021/12/29 02:19:27;;;;;;;19.65;12.45;;;;;;;6.62;68.72;100450.53;4973584;28;20023;-78
2021/12/29 02:22:02;;;;;;;23.05;12.60;;;;;;;6.68;68.96;100442.09;4974082;28;20033;-77
2021/12/29 02:24:40;;;;;;;21.13;12.98;;;;;;;6.66;68.74;100436.03;4973654;28;20023;-78
2021/12/29 02:27:09;;;;;;;18.60;11.52;;;;;;;6.65;68.95;100436.97;4973141;28;20038;-78
2021/12/29 02:29:36;;;;;;;18.50;11.32;;;;;;;6.68;68.60;100442.09;4973976;28;20483;-78
2021/12/29 02:32:03;;;;;;;21.80;13.15;;;;;;;6.72;68.65;100441.81;4973709;28;20106;-78
2021/12/29 02:34:28;;;;;;;48.33;13.48;;;;;;;6.74;68.71;100436.34;4973694;28;20400;-78
2021/12/29 02:36:57;;;;;;;18.27;12.25;;;;;;;6.78;68.59;100438.72;4988124;28;20034;-78
2021/12/29 02:39:23;;;;;;;20.23;12.63;;;;;;;6.69;68.45;100433.16;4993092;28;20105;-78
2021/12/29 02:41:52;;;;;;;22.10;13.98;;;;;;;6.72;68.35;100427.59;4992941;28;20022;-78
2021/12/29 02:44:23;;;;;;;21.73;13.63;;;;;;;6.78;68.80;100432.50;4993078;28;20381;-79
2021/12/29 02:46:49;;;;;;;19.08;12.00;;;;;;;6.82;69.08;100434.03;4950873;28;1223843;-77
2021/12/29 02:49:14;;;;;;;22.20;13.75;;;;;;;6.85;69.11;100434.63;4994107;28;20034;-77
2021/12/29 02:51:40;;;;;;;21.42;12.88;;;;;;;6.92;69.36;100435.06;4981805;28;20041;-77
2021/12/29 02:54:06;;;;;;;20.88;14.25;;;;;;;6.96;69.27;100433.91;4974046;28;20037;-77
2021/12/29 02:56:32;;;;;;;19.20;12.32;;;;;;;6.97;69.65;100433.78;4977078;28;20022;-77
2021/12/29 02:58:58;;;;;;;18.17;10.73;;;;;;;7.00;69.11;100425.56;4978336;28;20540;-77
2021/12/29 03:01:26;;;;;;;19.67;12.57;;;;;;;7.06;69.03;100429.66;4978640;28;20027;-77
2021/12/29 03:03:51;;;;;;;29.33;17.23;;;;;;;7.06;68.76;100425.13;4980361;28;20475;-76
2021/12/29 03:06:16;;;;;;;21.00;12.55;;;;;;;7.06;68.89;100422.44;4997500;28;20029;-77
2021/12/29 03:08:42;;;;;;;21.65;13.10;;;;;;;7.03;68.68;100427.19;4997524;28;20049;-77
2021/12/29 03:11:08;;;;;;;26.50;15.32;;;;;;;7.08;69.24;100430.38;4999518;28;20088;-77
2021/12/29 03:13:36;;;;;;;20.75;13.15;;;;;;;7.00;69.09;100422.88;5008048;28;20026;-77
2021/12/29 03:16:02;;;;;;;25.20;12.70;;;;;;;7.05;69.25;100430.59;4997185;28;20076;-79
2021/12/29 03:18:28;;;;;;;25.60;12.05;;;;;;;7.05;69.70;100425.25;4982845;28;20022;-78
2021/12/29 03:20:54;;;;;;;22.10;12.63;;;;;;;7.01;70.04;100426.41;4978324;28;20370;-79
2021/12/29 03:23:20;;;;;;;25.73;13.02;;;;;;;6.80;70.03;100414.53;4978102;28;20019;-80
2021/12/29 03:25:49;;;;;;;24.25;14.48;;;;;;;6.68;70.77;100420.72;4978330;28;20102;-79
2021/12/29 03:28:17;;;;;;;24.77;14.27;;;;;;;6.47;71.63;100407.88;4978550;28;20022;-78
2021/12/29 03:30:47;;;;;;;21.50;13.95;;;;;;;6.33;72.86;100420.47;4978804;28;20031;-79
2021/12/29 03:33:13;;;;;;;24.55;13.60;;;;;;;6.22;74.41;100412.31;4977489;28;20034;-77
2021/12/29 03:35:45;;;;;;;19.38;13.23;;;;;;;5.98;75.15;100412.13;4977571;28;20034;-76
2021/12/29 03:38:12;;;;;;;;;;;;;;;5.95;76.08;100410.53;4977894;28;20465;-77
2021/12/29 03:40:38;;;;;;;20.27;12.65;;;;;;;5.81;76.36;100404.34;4976743;28;19950;-75
2021/12/29 03:43:06;;;;;;;21.38;13.38;;;;;;;5.76;77.14;100404.63;4977228;28;20034;-74
2021/12/29 03:45:33;;;;;;;17.77;11.00;;;;;;;5.71;77.42;100419.22;4976723;28;20061;-75
2021/12/29 03:47:58;;;;;;;16.85;10.52;;;;;;;5.64;77.80;100415.25;4982793;28;20089;-75
2021/12/29 03:50:24;;;;;;;15.55;9.68;;;;;;;5.63;78.56;100413.53;4995582;28;20029;-77
2021/12/29 03:52:50;;;;;;;18.95;10.88;;;;;;;5.74;78.33;100413.69;4996039;28;20032;-76
2021/12/29 03:55:16;;;;;;;14.05;10.48;;;;;;;5.78;78.45;100415.22;4996028;28;20471;-75
2021/12/29 03:57:42;;;;;;;11.90;8.25;;;;;;;5.80;78.18;100414.16;4995748;28;20031;-76
2021/12/29 04:00:12;;;;;;;14.75;8.68;;;;;;;5.81;78.25;100412.34;4995876;28;20026;-76
2021/12/29 04:02:38;;;;;;;13.70;8.48;;;;;;;5.85;78.05;100408.50;4993206;28;20031;-77
2021/12/29 04:05:05;;;;;;;14.20;8.27;;;;;;;5.84;77.93;100409.50;4975852;28;20492;-76
2021/12/29 04:07:31;;;;;;;14.52;9.85;;;;;;;5.86;77.99;100410.25;4975783;28;20101;-76
2021/12/29 04:09:57;;;;;;;13.18;9.07;;;;;;;5.89;78.14;100397.59;4975924;28;20054;-77
2021/12/29 04:12:23;;;;;;;16.90;10.27;;;;;;;5.93;78.24;100417.75;4975959;28;20130;-76
2021/12/29 04:14:48;;;;;;;15.98;9.55;;;;;;;5.91;78.65;100413.47;4958812;28;20026;-76
2021/12/29 04:17:18;;;;;;;27.42;15.60;;;;;;;5.94;79.04;100397.25;4976977;28;20065;-76
2021/12/29 04:22:29;;;;;;;17.33;10.95;;;;;;;6.13;79.31;100403.09;4975924;28;20543;-76
2021/12/29 04:24:55;;;;;;;19.15;11.70;;;;;;;6.18;79.60;100398.31;4976103;28;20027;-76
2021/12/29 04:27:25;;;;;;;15.65;9.82;;;;;;;6.23;79.71;100398.00;4976005;28;20029;-76
2021/12/29 04:29:51;;;;;;;17.10;10.45;;;;;;;6.24;79.23;100391.72;4975961;28;20097;-76
2021/12/29 04:32:17;;;;;;;19.88;10.10;;;;;;;6.24;78.88;100389.88;4961865;28;20100;-76
2021/12/29 04:34:42;;;;;;;21.92;15.90;;;;;;;6.25;79.03;100394.28;4994949;28;20440;-75
2021/12/29 04:37:08;;;;;;;21.75;13.80;;;;;;;6.30;78.57;100394.81;4994777;28;20076;-76
2021/12/29 04:39:33;;;;;;;20.33;11.45;;;;;;;6.20;78.83;100392.88;4994974;28;20050;-76
2021/12/29 04:41:59;;;;;;;19.60;10.18;;;;;;;6.26;79.14;100385.31;4993953;28;20030;-76
2021/12/29 04:44:24;;;;;;;19.13;10.60;;;;;;;6.28;79.35;100388.72;4994649;28;20118;-77
2021/12/29 04:46:51;;;;;;;14.13;9.88;;;;;;;6.29;79.22;100385.09;4994983;28;20054;-76
2021/12/29 04:49:22;;;;;;;15.75;12.25;;;;;;;6.32;79.41;100379.56;4995008;28;20497;-76
2021/12/29 04:51:55;;;;;;;17.73;11.32;;;;;;;6.40;79.08;100381.69;4995570;28;20030;-76
2021/12/29 04:54:20;;;;;;;;;;;;;;;6.38;79.17;100392.50;4977735;28;20026;-76
2021/12/29 04:56:46;;;;;;;23.20;12.95;;;;;;;6.32;79.45;100387.56;4994797;28;20394;-77
2021/12/29 04:59:12;;;;;;;17.92;11.65;;;;;;;6.33;79.64;100394.59;4994098;28;20449;-76
2021/12/29 05:01:38;;;;;;;16.42;12.10;;;;;;;6.40;79.67;100400.38;4994618;28;20496;-76
2021/12/29 05:04:03;;;;;;;19.30;12.25;;;;;;;6.41;79.75;100392.28;4980564;28;20062;-76
2021/12/29 05:09:13;;;;;;;25.42;15.27;;;;;;;6.40;79.88;100387.88;4976572;28;20206;-75
2021/12/29 05:11:38;;;;;;;25.70;16.00;;;;;;;6.52;79.91;100392.41;4976350;28;20570;-76
2021/12/29 05:14:04;;;;;;;28.85;17.23;;;;;;;6.55;79.91;100391.31;4975401;28;20563;-76
2021/12/29 05:16:29;;;;;;;29.75;15.80;;;;;;;6.57;79.77;100384.91;4974906;28;20033;-76
2021/12/29 05:18:56;;;;;;;22.85;16.13;;;;;;;6.69;79.70;100382.38;4990905;28;20472;-76
2021/12/29 05:21:23;;;;;;;27.27;18.73;;;;;;;6.69;80.03;100380.56;4994190;28;20106;-76
2021/12/29 05:23:48;;;;;;;24.33;16.40;;;;;;;6.72;80.18;100390.19;4994174;28;20033;-76
2021/12/29 05:26:14;;;;;;;27.17;16.92;;;;;;;6.70;79.93;100387.59;4992319;28;20026;-76
2021/12/29 05:28:39;;;;;;;30.48;17.27;;;;;;;6.76;79.94;100386.34;4993583;28;20071;-75
2021/12/29 05:31:05;;;;;;;38.65;20.02;;;;;;;6.77;79.95;100385.34;4993673;28;20081;-75
2021/12/29 05:33:31;;;;;;;33.13;20.67;;;;;;;6.81;80.31;100381.50;4991919;28;20026;-76
2021/12/29 05:35:56;;;;;;;35.30;22.20;;;;;;;6.83;80.13;100376.91;4993657;28;20034;-76
2021/12/29 05:38:22;;;;;;;27.55;18.63;;;;;;;6.82;79.86;100377.91;4993852;28;20026;-76
2021/12/29 05:40:52;;;;;;;42.40;24.17;;;;;;;6.84;80.17;100382.16;4980809;28;20441;-76
2021/12/29 05:43:18;;;;;;;37.70;22.15;;;;;;;6.82;80.01;100388.59;4974773;28;20037;-75
2021/12/29 05:45:43;;;;;;;39.70;23.02;;;;;;;6.73;79.90;100376.69;4973961;28;20031;-76
2021/12/29 05:48:09;;;;;;;39.13;23.10;;;;;;;6.76;80.31;100373.81;4974066;28;20035;-76
2021/12/29 05:50:35;;;;;;;38.10;24.77;;;;;;;6.81;79.96;100370.81;4974260;28;20450;-77
2021/12/29 05:53:02;;;;;;;37.45;24.10;;;;;;;6.72;80.04;100377.69;4974290;28;20027;-76
2021/12/29 05:55:28;;;;;;;33.28;22.83;;;;;;;6.76;80.07;100365.78;4981661;28;20058;-76
2021/12/29 05:57:54;;;;;;;39.88;26.25;;;;;;;6.86;80.63;100371.34;4993117;28;20042;-77
2021/12/29 06:00:22;;;;;;;34.90;21.50;;;;;;;6.94;81.32;100379.72;4993178;28;20031;-76
2021/12/29 06:02:48;;;;;;;30.35;19.77;;;;;;;6.99;81.49;100374.88;4993275;28;20082;-76
2021/12/29 06:05:14;;;;;;;30.70;18.58;;;;;;;6.98;81.50;100366.00;4980673;28;20515;-76
2021/12/29 06:07:40;;;;;;;36.53;20.10;;;;;;;6.91;81.12;100364.72;4973977;28;20508;-76
2021/12/29 06:10:07;;;;;;;34.05;19.33;;;;;;;6.99;80.80;100366.84;4973873;28;20027;-78
2021/12/29 06:12:33;;;;;;;34.58;22.10;;;;;;;6.96;80.85;100375.09;4973868;28;20022;-77
2021/12/29 06:14:58;;;;;;;43.30;24.08;;;;;;;7.02;80.31;100372.00;4973909;28;20034;-76
2021/12/29 06:17:24;;;;;;;41.33;26.02;;;;;;;7.08;80.39;100372.41;4988831;28;20061;-76
2021/12/29 06:19:49;;;;;;;37.25;23.73;;;;;;;7.13;80.30;100370.25;4993004;28;20030;-76
2021/12/29 06:22:15;;;;;;;40.95;24.50;;;;;;;7.17;80.62;100365.56;4993162;28;20030;-75
2021/12/29 06:24:42;;;;;;;53.83;25.70;;;;;;;7.15;80.98;100367.50;4992857;28;20026;-76
2021/12/29 06:27:08;;;;;;;40.03;22.70;;;;;;;7.06;80.75;100363.63;4993213;28;20464;-75
2021/12/29 06:29:35;;;;;;;35.95;20.55;;;;;;;7.12;81.09;100368.53;4996535;28;20450;-77
2021/12/29 06:32:01;;;;;;;31.10;16.42;;;;;;;7.11;81.18;100360.63;4973702;28;20031;-77
2021/12/29 06:34:27;;;;;;;33.67;19.08;;;;;;;6.95;81.52;100354.66;4974283;28;20027;-76
2021/12/29 06:36:53;;;;;;;26.85;16.88;;;;;;;6.93;82.26;100372.63;4979975;28;20081;-76
2021/12/29 06:39:19;;;;;;;38.83;21.05;;;;;;;7.07;82.24;100375.19;4992962;28;20030;-77
2021/12/29 06:41:45;;;;;;;20.08;10.90;;;;;;;6.94;82.73;100363.66;4980426;28;20034;-76
2021/12/29 06:44:10;;;;;;;22.38;13.32;;;;;;;7.05;83.48;100371.78;4978980;28;20416;-75
2021/12/29 06:46:36;;;;;;;23.60;13.57;;;;;;;7.15;83.38;100370.16;4978423;28;20037;-76
2021/12/29 06:49:02;;;;;;;28.30;16.30;;;;;;;7.30;83.32;100355.69;4973096;28;20011;-75
2021/12/29 06:51:28;;;;;;;15.32;9.57;;;;;;;7.31;83.64;100361.91;4976838;28;20042;-76
2021/12/29 06:53:53;;;;;;;19.35;8.80;;;;;;;7.38;83.61;100363.13;4990837;28;20088;-76
2021/12/29 06:56:19;;;;;;;12.43;7.80;;;;;;;7.30;83.40;100355.69;4992691;28;20026;-76
2021/12/29 06:58:44;;;;;;;12.65;7.25;;;;;;;7.44;84.15;100347.50;4987146;28;20030;-76
2021/12/29 07:01:12;;;;;;;13.50;8.23;;;;;;;7.53;84.25;100346.84;4973409;28;20030;-76
2021/12/29 07:03:38;;;;;;;12.07;9.07;;;;;;;7.54;84.15;100343.19;4973397;28;20022;-76
2021/12/29 07:06:04;;;;;;;13.07;8.82;;;;;;;7.58;83.79;100341.97;4977687;28;20066;-76
2021/12/29 07:08:29;;;;;;;18.70;9.95;;;;;;;7.58;83.82;100333.94;4977257;28;20423;-76
2021/12/29 07:10:55;;;;;;;14.45;9.40;;;;;;;7.49;83.22;100333.81;4980047;28;20342;-77
2021/12/29 07:13:21;;;;;;;17.00;10.48;;;;;;;7.39;83.16;100338.97;4973287;28;20105;-75
2021/12/29 07:15:46;;;;;;;17.05;10.27;;;;;;;7.42;83.68;100337.88;4973332;28;20023;-75
2021/12/29 07:18:12;;;;;;;19.13;10.77;;;;;;;7.41;83.94;100330.81;4973285;28;20058;-75
2021/12/29 07:20:38;;;;;;;20.02;11.73;;;;;;;7.52;84.00;100336.25;4972828;28;20034;-76
2021/12/29 07:23:04;;;;;;;15.00;10.55;;;;;;;7.58;84.30;100333.13;4972840;28;20396;-76
2021/12/29 07:25:30;;;;;;;21.80;12.57;;;;;;;7.67;84.32;100340.47;4972852;28;20031;-77
2021/12/29 07:27:56;;;;;;;20.75;12.38;;;;;;;7.67;84.40;100338.63;4973130;28;20440;-76
2021/12/29 07:30:22;;;;;;;17.42;11.75;;;;;;;7.66;84.25;100331.59;4973238;28;20042;-76
2021/12/29 07:32:48;;;;;;;17.60;11.68;;;;;;;7.70;84.31;100331.38;4973645;28;20354;-76
2021/12/29 07:35:13;;;;;;;21.73;12.45;;;;;;;7.73;85.01;100333.81;4973256;28;20034;-77
2021/12/29 07:37:39;;;;;;;20.55;14.57;;;;;;;7.70;84.79;100340.25;4972835;28;20027;-76
2021/12/29 07:40:07;;;;;;;23.90;15.75;;;;;;;7.77;85.25;100332.63;4973411;28;20493;-77
2021/12/29 07:42:34;;;;;;;22.00;14.10;;;;;;;7.74;84.95;100336.34;4975917;28;20054;-77
2021/12/29 07:44:59;;;;;;;20.23;13.75;;;;;;;7.69;85.08;100335.84;4976768;28;20026;-76
2021/12/29 07:47:25;;;;;;;23.73;13.82;;;;;;;7.62;84.62;100335.44;4976252;28;20066;-76
2021/12/29 07:49:50;;;;;;;21.60;13.95;;;;;;;7.51;84.62;100330.03;4977054;28;20401;-76
2021/12/29 07:52:16;;;;;;;23.83;15.30;;;;;;;7.60;85.19;100337.41;4976249;28;20124;-76
2021/12/29 07:54:42;;;;;;;22.67;13.52;;;;;;;7.38;85.55;100347.94;4976449;28;20023;-75
2021/12/29 07:57:07;;;;;;;26.30;17.45;;;;;;;7.55;86.06;100350.25;4976251;28;20154;-76
2021/12/29 07:59:34;;;;;;;28.92;17.85;;;;;;;7.59;86.38;100351.72;4976372;28;20374;-77
2021/12/29 08:02:00;;;;;;;33.63;19.45;;;;;;;7.64;86.78;100341.53;4976519;28;20049;-76
2021/12/29 08:04:26;;;;;;;24.33;14.93;;;;;;;7.75;86.81;100350.59;4976303;28;20469;-77
2021/12/29 08:06:52;;;;;;;23.10;14.05;;;;;;;7.83;87.21;100345.56;4977428;28;20029;-76
2021/12/29 08:09:17;;;;;;;26.58;14.82;;;;;;;7.72;87.43;100345.47;4977355;28;20026;-76
2021/12/29 08:11:43;;;;;;;20.73;12.30;;;;;;;7.80;87.05;100349.28;4975831;28;20023;-75
2021/12/29 08:14:09;;;;;;;28.30;16.77;;;;;;;7.80;86.73;100348.47;4976014;28;20014;-76
2021/12/29 08:16:35;;;;;;;22.95;14.77;;;;;;;7.87;86.45;100355.03;4976176;28;20030;-77
2021/12/29 08:19:00;;;;;;;25.10;12.98;;;;;;;7.83;86.73;100353.59;4976167;28;20389;-77
2021/12/29 08:21:26;;;;;;;25.95;16.05;;;;;;;7.90;87.06;100360.16;4975659;28;20358;-75
2021/12/29 08:23:51;;;;;;;24.20;16.00;;;;;;;8.00;87.08;100356.69;4975933;28;20123;-77
2021/12/29 08:26:19;;;;;;;22.90;14.93;;;;;;;8.04;86.83;100360.00;4975464;28;20056;-76
2021/12/29 08:28:44;;;;;;;23.52;14.30;;;;;;;8.15;86.44;100352.88;4975821;28;20453;-76
2021/12/29 08:31:11;;;;;;;25.80;15.82;;;;;;;8.25;86.16;100357.53;4976952;28;20026;-76
2021/12/29 08:33:38;;;;;;;23.42;15.27;;;;;;;8.25;86.14;100345.00;4975408;28;20114;-75
2021/12/29 08:36:06;;;;;;;19.48;12.68;;;;;;;8.27;85.36;100347.53;4975577;28;20027;-77
2021/12/29 08:38:32;;;;;;;24.70;11.57;;;;;;;8.32;85.20;100348.09;4975504;28;20074;-76
2021/12/29 08:40:57;;;;;;;21.73;11.23;;;;;;;8.36;84.79;100334.31;4975560;28;20030;-76
2021/12/29 08:43:23;;;;;;;17.50;9.93;;;;;;;8.34;85.00;100338.97;4975135;28;20022;-77
2021/12/29 08:45:48;;;;;;;21.20;14.13;;;;;;;8.37;84.48;100344.09;4975643;28;20498;-76
2021/12/29 08:48:14;;;;;;;21.25;11.18;;;;;;;8.37;84.29;100344.09;4974817;28;20101;-76
2021/12/29 08:50:40;;;;;;;19.05;11.52;;;;;;;8.35;85.00;100339.81;4975071;28;20063;-76
2021/12/29 08:53:08;;;;;;;13.68;9.13;;;;;;;8.39;85.00;100334.09;4973789;28;20093;-76
2021/12/29 08:55:34;;;;;;;14.57;10.82;;;;;;;8.38;85.53;100335.06;4975167;28;20027;-76
2021/12/29 08:58:00;;;;;;;15.68;9.73;;;;;;;8.43;85.09;100334.72;4974913;28;20532;-76
2021/12/29 09:00:26;;;;;;;26.63;15.48;;;;;;;8.53;84.86;100328.50;4975117;28;20102;-76
2021/12/29 09:02:51;;;;;;;21.88;12.93;;;;;;;8.61;85.49;100320.75;4974964;28;20119;-76
2021/12/29 09:05:18;;;;;;;25.35;13.65;;;;;;;8.67;85.70;100320.25;4975058;28;20098;-75
2021/12/29 09:07:45;;;;;;;30.25;14.60;;;;;;;8.68;85.66;100313.91;4974933;28;20449;-76
2021/12/29 09:10:13;;;;;;;18.08;11.95;;;;;;;8.73;84.22;100314.41;4975172;28;20030;-77
2021/12/29 09:12:38;;;;;;;15.40;10.02;;;;;;;8.74;84.30;100302.69;4975258;28;20097;-76
2021/12/29 09:15:05;;;;;;;20.13;12.40;;;;;;;8.83;84.16;100297.59;4975130;28;20046;-75
2021/12/29 09:17:31;;;;;;;21.73;12.45;;;;;;;8.85;84.26;100290.28;4974766;28;20041;-77
2021/12/29 09:19:57;;;;;;;54.03;31.75;;;;;;;8.90;83.82;100288.09;4974424;28;20026;-76
2021/12/29 09:22:22;;;;;;;19.60;11.93;;;;;;;8.97;83.93;100283.94;4974453;28;20119;-77
2021/12/29 09:24:49;;;;;;;11.05;6.75;;;;;;;8.93;84.01;100279.81;4974779;28;20457;-77
2021/12/29 09:27:16;;;;;;;13.48;7.72;;;;;;;8.89;83.92;100270.28;4974728;28;20023;-77
2021/12/29 09:29:42;;;;;;;12.18;8.50;;;;;;;8.88;84.13;100272.13;4975083;28;20026;-77
2021/12/29 09:32:08;;;;;;;5.15;4.45;;;;;;;8.92;84.79;100270.91;4974573;28;20053;-77
2021/12/29 09:34:34;;;;;;;7.55;5.22;;;;;;;9.01;84.59;100274.66;4975472;28;20393;-76
2021/12/29 09:37:01;;;;;;;7.82;4.70;;;;;;;9.02;84.94;100279.06;4974803;28;20034;-77
2021/12/29 09:39:27;;;;;;;6.45;4.53;;;;;;;8.98;85.13;100272.25;4975176;28;20023;-76
2021/12/29 09:41:53;;;;;;;9.18;5.40;;;;;;;9.03;85.17;100267.34;4975227;28;20029;-77
2021/12/29 09:44:19;;;;;;;7.45;5.13;;;;;;;9.00;84.70;100267.59;4979031;28;20035;-76
2021/12/29 09:46:45;;;;;;;10.63;6.45;;;;;;;9.04;85.18;100258.31;4978374;28;20042;-76
2021/12/29 09:49:10;;;;;;;15.48;8.27;;;;;;;9.06;85.60;100251.00;4974289;28;20027;-77
2021/12/29 09:51:37;;;;;;;29.98;14.10;;;;;;;9.17;85.70;100253.69;4974398;28;20047;-77
2021/12/29 09:54:03;;;;;;;33.65;18.73;;;;;;;9.18;85.70;100244.63;4974320;28;20031;-76
2021/12/29 09:56:29;;;;;;;45.20;23.70;;;;;;;9.26;85.71;100252.94;4975008;28;20105;-77
2021/12/29 09:58:55;;;;;;;29.15;17.05;;;;;;;9.21;85.59;100242.56;4974570;28;20537;-78
2021/12/29 10:01:21;;;;;;;18.88;9.05;;;;;;;9.22;85.72;100243.41;4973880;28;20442;-78
2021/12/29 10:03:48;;;;;;;15.30;6.07;;;;;;;9.28;85.40;100242.91;4973774;28;20177;-76
2021/12/29 10:06:15;;;;;;;8.85;5.05;;;;;;;9.29;85.24;100245.47;4974309;28;20030;-76
2021/12/29 10:08:47;;;;;;;10.10;4.43;;;;;;;9.34;85.06;100237.03;4974603;28;20019;-77
2021/12/29 10:11:36;;;;;;;8.65;5.53;;;;;;;9.23;84.69;100220.97;4974525;28;20034;-77
2021/12/29 10:14:07;;;;;;;11.68;5.30;;;;;;;9.35;85.04;100245.94;4974162;28;20477;-77
2021/12/29 10:16:33;;;;;;;7.60;5.00;;;;;;;9.23;84.93;100237.09;4974491;28;20019;-78
2021/12/29 10:19:12;;;;;;;8.52;5.78;;;;;;;9.20;85.36;100240.84;4973724;28;20114;-78
2021/12/29 10:21:42;;;;;;;7.38;4.82;;;;;;;9.32;85.74;100236.31;4974178;28;20081;-78
2021/12/29 10:24:08;;;;;;;8.82;6.60;;;;;;;9.38;86.40;100226.91;4974383;28;20394;-77
2021/12/29 10:26:38;;;;;;;13.85;8.10;;;;;;;9.44;86.46;100224.56;4974082;28;20033;-77
2021/12/29 10:29:07;;;;;;;16.45;10.75;;;;;;;9.48;86.41;100209.91;4975145;28;20031;-79
2021/12/29 10:31:40;;;;;;;18.70;5.90;;;;;;;9.46;85.90;100211.88;4974339;28;20030;-78
2021/12/29 10:34:10;;;;;;;7.10;4.82;;;;;;;9.42;85.10;100205.03;4958598;28;20081;-79
2021/12/29 10:37:05;;;;;;;7.68;5.43;;;;;;;9.46;85.14;100211.00;4962921;28;20031;-78
2021/12/29 10:39:47;;;;;;;5.57;4.38;;;;;;;9.44;84.71;100197.72;4978656;28;20405;-79
2021/12/29 10:42:12;;;;;;;9.38;4.95;;;;;;;9.45;84.76;100195.91;4976245;28;20096;-79
2021/12/29 10:44:47;;;;;;;7.22;4.57;;;;;;;9.48;85.07;100199.16;4974575;28;20038;-77
2021/12/29 10:47:15;;;;;;;5.97;3.42;;;;;;;9.48;85.17;100201.03;4974016;28;20059;-78
2021/12/29 10:50:14;;;;;;;4.53;3.25;;;;;;;9.42;84.66;100186.25;4973903;28;20062;-80
2021/12/29 10:52:46;;;;;;;6.38;3.40;;;;;;;9.50;84.92;100180.25;4925133;28;20129;-79
2021/12/29 10:55:35;;;;;;;6.35;3.60;;;;;;;9.56;85.52;100175.22;4973824;28;20026;-79
2021/12/29 10:58:11;;;;;;;5.32;3.47;;;;;;;9.53;85.77;100170.13;4973820;28;20038;-77
2021/12/29 11:00:39;;;;;;;5.93;3.65;;;;;;;9.42;85.23;100172.00;4973857;28;20030;-76
2021/12/29 11:03:15;;;;;;;5.03;3.35;;;;;;;9.49;85.35;100171.34;4974069;28;20440;-77
2021/12/29 11:05:42;;;;;;;9.55;4.60;;;;;;;9.45;85.21;100167.22;4974078;28;20496;-78
2021/12/29 11:08:10;;;;;;;7.85;4.40;;;;;;;9.47;85.13;100153.69;4973713;28;20034;-77
2021/12/29 11:10:36;;;;;;;13.27;5.88;;;;;;;9.48;85.14;100153.53;4973779;28;20035;-77
2021/12/29 11:13:03;;;;;;;5.18;3.40;;;;;;;9.53;85.25;100147.78;4973506;28;20034;-77
2021/12/29 11:15:38;;;;;;;3.33;2.90;;;;;;;9.50;84.77;100148.91;4973729;28;20030;-78
2021/12/29 11:18:09;;;;;;;6.70;3.92;;;;;;;9.51;84.64;100144.38;4977672;28;20073;-77
2021/12/29 11:20:36;;;;;;;7.25;4.22;;;;;;;9.55;85.28;100140.44;4978432;28;20027;-77
2021/12/29 11:23:04;;;;;;;4.75;2.92;;;;;;;9.58;85.54;100146.41;4996271;28;20079;-77
2021/12/29 11:25:32;;;;;;;6.38;4.20;;;;;;;9.62;85.95;100144.31;4981237;28;20035;-78
2021/12/29 11:27:57;;;;;;;3.53;3.03;;;;;;;9.56;85.36;100134.09;4978291;28;20488;-76